sensor_id;sensor_type;location;lat;lon;timestamp;P1;durP1;ratioP1;P2;durP2;ratioP2
71626;SDS011;59475;52.464;13.590;2023-03-01T00:02:06;54.35;;;20.90;;
71626;SDS011;59475;52.464;13.590;2023-03-01T00:04:32;48.20;;;18.90;;
71626;SDS011;59475;52.464;13.590;2023-03-01T00:06:57;31.43;;;16.97;;
71626;SDS011;59475;52.464;13.590;2023-03-01T00:09:23;35.60;;;16.47;;
71626;SDS011;59475;52.464;13.590;2023-03-01T00:11:48;39.80;;;17.90;;
71626;SDS011;59475;52.464;13.590;2023-03-01T00:14:14;49.50;;;20.90;;
71626;SDS011;59475;52.464;13.590;2023-03-01T00:16:41;43.08;;;18.55;;
71626;SDS011;59475;52.464;13.590;2023-03-01T00:19:12;47.03;;;20.20;;
71626;SDS011;59475;52.464;13.590;2023-03-01T00:21:40;43.67;;;19.13;;
71626;SDS011;59475;52.464;13.590;2023-03-01T00:24:06;35.80;;;17.17;;
71626;SDS011;59475;52.464;13.590;2023-03-01T00:26:32;43.43;;;19.23;;
71626;SDS011;59475;52.464;13.590;2023-03-01T00:28:58;40.45;;;18.73;;
71626;SDS011;59475;52.464;13.590;2023-03-01T00:31:25;38.03;;;18.52;;
71626;SDS011;59475;52.464;13.590;2023-03-01T00:33:53;39.50;;;18.23;;
71626;SDS011;59475;52.464;13.590;2023-03-01T00:36:23;34.92;;;16.98;;
71626;SDS011;59475;52.464;13.590;2023-03-01T00:38:50;31.48;;;17.85;;
71626;SDS011;59475;52.464;13.590;2023-03-01T00:41:16;30.67;;;16.73;;
71626;SDS011;59475;52.464;13.590;2023-03-01T00:43:43;36.92;;;18.50;;
71626;SDS011;59475;52.464;13.590;2023-03-01T00:46:10;36.65;;;18.45;;
71626;SDS011;59475;52.464;13.590;2023-03-01T00:48:40;38.03;;;18.23;;
71626;SDS011;59475;52.464;13.590;2023-03-01T00:51:06;36.78;;;18.02;;
71626;SDS011;59475;52.464;13.590;2023-03-01T00:53:33;33.03;;;17.33;;
71626;SDS011;59475;52.464;13.590;2023-03-01T00:55:59;38.28;;;17.50;;
71626;SDS011;59475;52.464;13.590;2023-03-01T00:58:24;37.40;;;17.60;;
71626;SDS011;59475;52.464;13.590;2023-03-01T01:00:50;35.53;;;19.20;;
71626;SDS011;59475;52.464;13.590;2023-03-01T01:03:16;31.97;;;15.47;;
71626;SDS011;59475;52.464;13.590;2023-03-01T01:05:41;35.37;;;16.20;;
71626;SDS011;59475;52.464;13.590;2023-03-01T01:08:06;31.98;;;16.02;;
71626;SDS011;59475;52.464;13.590;2023-03-01T01:10:33;31.73;;;17.30;;
71626;SDS011;59475;52.464;13.590;2023-03-01T01:12:59;32.60;;;16.02;;
71626;SDS011;59475;52.464;13.590;2023-03-01T01:15:25;29.70;;;15.90;;
71626;SDS011;59475;52.464;13.590;2023-03-01T01:17:50;30.63;;;16.43;;
71626;SDS011;59475;52.464;13.590;2023-03-01T01:20:16;29.10;;;16.77;;
71626;SDS011;59475;52.464;13.590;2023-03-01T01:22:41;32.15;;;16.40;;
71626;SDS011;59475;52.464;13.590;2023-03-01T01:25:07;29.17;;;16.40;;
71626;SDS011;59475;52.464;13.590;2023-03-01T01:27:33;27.98;;;15.77;;
71626;SDS011;59475;52.464;13.590;2023-03-01T01:29:58;25.57;;;15.60;;
71626;SDS011;59475;52.464;13.590;2023-03-01T01:32:24;27.50;;;15.00;;
71626;SDS011;59475;52.464;13.590;2023-03-01T01:34:49;27.95;;;16.58;;
71626;SDS011;59475;52.464;13.590;2023-03-01T01:37:15;31.60;;;15.07;;
71626;SDS011;59475;52.464;13.590;2023-03-01T01:39:40;28.77;;;14.90;;
71626;SDS011;59475;52.464;13.590;2023-03-01T01:42:05;30.50;;;14.80;;
71626;SDS011;59475;52.464;13.590;2023-03-01T01:44:33;28.37;;;15.03;;
71626;SDS011;59475;52.464;13.590;2023-03-01T01:47:00;30.20;;;14.95;;
71626;SDS011;59475;52.464;13.590;2023-03-01T01:50:10;26.60;;;15.02;;
71626;SDS011;59475;52.464;13.590;2023-03-01T01:52:25;22.05;;;12.70;;
71626;SDS011;59475;52.464;13.590;2023-03-01T01:57:24;22.13;;;11.57;;
71626;SDS011;59475;52.464;13.590;2023-03-01T01:59:54;17.92;;;10.52;;
71626;SDS011;59475;52.464;13.590;2023-03-01T02:02:22;18.33;;;10.88;;
71626;SDS011;59475;52.464;13.590;2023-03-01T02:04:49;19.55;;;11.02;;
71626;SDS011;59475;52.464;13.590;2023-03-01T02:07:21;19.80;;;11.73;;
71626;SDS011;59475;52.464;13.590;2023-03-01T02:09:49;16.45;;;10.07;;
71626;SDS011;59475;52.464;13.590;2023-03-01T02:12:16;16.88;;;9.82;;
71626;SDS011;59475;52.464;13.590;2023-03-01T02:14:44;16.88;;;10.35;;
71626;SDS011;59475;52.464;13.590;2023-03-01T02:17:11;21.07;;;9.63;;
71626;SDS011;59475;52.464;13.590;2023-03-01T02:19:40;22.63;;;11.00;;
71626;SDS011;59475;52.464;13.590;2023-03-01T02:22:24;17.63;;;9.80;;
71626;SDS011;59475;52.464;13.590;2023-03-01T02:27:21;18.20;;;10.90;;
71626;SDS011;59475;52.464;13.590;2023-03-01T02:29:51;14.43;;;9.45;;
71626;SDS011;59475;52.464;13.590;2023-03-01T02:32:16;19.42;;;10.35;;
71626;SDS011;59475;52.464;13.590;2023-03-01T02:34:50;16.33;;;9.63;;
71626;SDS011;59475;52.464;13.590;2023-03-01T02:37:17;18.73;;;10.60;;
71626;SDS011;59475;52.464;13.590;2023-03-01T02:39:49;15.88;;;10.02;;
71626;SDS011;59475;52.464;13.590;2023-03-01T02:42:23;16.33;;;10.00;;
71626;SDS011;59475;52.464;13.590;2023-03-01T02:44:53;17.63;;;10.85;;
71626;SDS011;59475;52.464;13.590;2023-03-01T02:47:18;17.73;;;10.20;;
71626;SDS011;59475;52.464;13.590;2023-03-01T02:49:44;15.40;;;8.97;;
71626;SDS011;59475;52.464;13.590;2023-03-01T02:52:30;18.03;;;9.57;;
71626;SDS011;59475;52.464;13.590;2023-03-01T02:55:09;17.60;;;9.90;;
71626;SDS011;59475;52.464;13.590;2023-03-01T02:57:38;18.65;;;10.57;;
71626;SDS011;59475;52.464;13.590;2023-03-01T03:00:08;19.15;;;9.80;;
71626;SDS011;59475;52.464;13.590;2023-03-01T03:02:43;17.90;;;9.38;;
71626;SDS011;59475;52.464;13.590;2023-03-01T03:05:17;19.50;;;9.90;;
71626;SDS011;59475;52.464;13.590;2023-03-01T03:07:45;15.40;;;9.75;;
71626;SDS011;59475;52.464;13.590;2023-03-01T03:10:13;16.80;;;10.40;;
71626;SDS011;59475;52.464;13.590;2023-03-01T03:12:40;15.38;;;10.45;;
71626;SDS011;59475;52.464;13.590;2023-03-01T03:15:07;19.60;;;10.07;;
71626;SDS011;59475;52.464;13.590;2023-03-01T03:17:35;17.85;;;9.75;;
71626;SDS011;59475;52.464;13.590;2023-03-01T03:20:02;16.10;;;9.60;;
71626;SDS011;59475;52.464;13.590;2023-03-01T03:22:29;16.65;;;10.10;;
71626;SDS011;59475;52.464;13.590;2023-03-01T03:24:55;15.48;;;8.82;;
71626;SDS011;59475;52.464;13.590;2023-03-01T03:27:20;16.00;;;9.53;;
71626;SDS011;59475;52.464;13.590;2023-03-01T03:29:46;17.48;;;8.68;;
71626;SDS011;59475;52.464;13.590;2023-03-01T03:32:11;23.48;;;9.05;;
71626;SDS011;59475;52.464;13.590;2023-03-01T03:34:36;14.30;;;8.83;;
71626;SDS011;59475;52.464;13.590;2023-03-01T03:37:02;19.57;;;10.50;;
71626;SDS011;59475;52.464;13.590;2023-03-01T03:39:27;15.70;;;9.37;;
71626;SDS011;59475;52.464;13.590;2023-03-01T03:41:53;18.77;;;9.82;;
71626;SDS011;59475;52.464;13.590;2023-03-01T03:44:20;20.90;;;10.47;;
71626;SDS011;59475;52.464;13.590;2023-03-01T03:46:45;17.60;;;10.20;;
71626;SDS011;59475;52.464;13.590;2023-03-01T03:49:11;15.13;;;8.73;;
71626;SDS011;59475;52.464;13.590;2023-03-01T03:51:36;18.58;;;10.10;;
71626;SDS011;59475;52.464;13.590;2023-03-01T03:54:02;19.47;;;10.33;;
71626;SDS011;59475;52.464;13.590;2023-03-01T03:56:27;16.07;;;8.23;;
71626;SDS011;59475;52.464;13.590;2023-03-01T03:58:52;17.27;;;9.50;;
71626;SDS011;59475;52.464;13.590;2023-03-01T04:01:18;18.13;;;9.30;;
71626;SDS011;59475;52.464;13.590;2023-03-01T04:03:43;17.73;;;9.65;;
71626;SDS011;59475;52.464;13.590;2023-03-01T04:06:12;18.80;;;9.68;;
71626;SDS011;59475;52.464;13.590;2023-03-01T04:08:38;19.65;;;10.52;;
71626;SDS011;59475;52.464;13.590;2023-03-01T04:11:04;15.98;;;9.63;;
71626;SDS011;59475;52.464;13.590;2023-03-01T04:13:49;16.63;;;9.80;;
71626;SDS011;59475;52.464;13.590;2023-03-01T04:16:15;18.55;;;9.10;;
71626;SDS011;59475;52.464;13.590;2023-03-01T04:18:40;14.23;;;8.40;;
71626;SDS011;59475;52.464;13.590;2023-03-01T04:21:06;19.97;;;10.13;;
71626;SDS011;59475;52.464;13.590;2023-03-01T04:23:31;17.07;;;8.53;;
71626;SDS011;59475;52.464;13.590;2023-03-01T04:25:57;14.40;;;9.13;;
71626;SDS011;59475;52.464;13.590;2023-03-01T04:28:28;14.65;;;9.13;;
71626;SDS011;59475;52.464;13.590;2023-03-01T04:31:09;16.58;;;8.93;;
71626;SDS011;59475;52.464;13.590;2023-03-01T04:33:44;17.27;;;10.60;;
71626;SDS011;59475;52.464;13.590;2023-03-01T04:36:12;15.38;;;9.32;;
71626;SDS011;59475;52.464;13.590;2023-03-01T04:38:38;18.58;;;10.50;;
71626;SDS011;59475;52.464;13.590;2023-03-01T04:41:05;19.33;;;10.15;;
71626;SDS011;59475;52.464;13.590;2023-03-01T04:43:32;16.40;;;10.57;;
71626;SDS011;59475;52.464;13.590;2023-03-01T04:46:06;15.98;;;10.32;;
71626;SDS011;59475;52.464;13.590;2023-03-01T04:48:34;17.08;;;10.35;;
71626;SDS011;59475;52.464;13.590;2023-03-01T04:51:01;17.80;;;11.13;;
71626;SDS011;59475;52.464;13.590;2023-03-01T04:53:28;19.55;;;11.15;;
71626;SDS011;59475;52.464;13.590;2023-03-01T04:55:54;19.38;;;11.27;;
71626;SDS011;59475;52.464;13.590;2023-03-01T04:58:21;20.75;;;10.73;;
71626;SDS011;59475;52.464;13.590;2023-03-01T05:00:49;18.20;;;10.18;;
71626;SDS011;59475;52.464;13.590;2023-03-01T05:03:15;17.35;;;10.65;;
71626;SDS011;59475;52.464;13.590;2023-03-01T05:05:43;19.90;;;10.20;;
71626;SDS011;59475;52.464;13.590;2023-03-01T05:08:09;21.55;;;10.35;;
71626;SDS011;59475;52.464;13.590;2023-03-01T05:10:42;17.67;;;10.63;;
71626;SDS011;59475;52.464;13.590;2023-03-01T05:13:08;17.75;;;10.15;;
71626;SDS011;59475;52.464;13.590;2023-03-01T05:15:34;17.67;;;8.93;;
71626;SDS011;59475;52.464;13.590;2023-03-01T05:18:01;17.60;;;10.38;;
71626;SDS011;59475;52.464;13.590;2023-03-01T05:20:27;15.77;;;9.37;;
71626;SDS011;59475;52.464;13.590;2023-03-01T05:22:57;14.30;;;9.32;;
71626;SDS011;59475;52.464;13.590;2023-03-01T05:25:24;14.02;;;8.88;;
71626;SDS011;59475;52.464;13.590;2023-03-01T05:27:49;16.43;;;9.07;;
71626;SDS011;59475;52.464;13.590;2023-03-01T05:30:15;15.63;;;8.95;;
71626;SDS011;59475;52.464;13.590;2023-03-01T05:32:46;17.33;;;9.25;;
71626;SDS011;59475;52.464;13.590;2023-03-01T05:35:13;17.40;;;8.95;;
71626;SDS011;59475;52.464;13.590;2023-03-01T05:37:44;15.37;;;9.00;;
71626;SDS011;59475;52.464;13.590;2023-03-01T05:40:13;14.07;;;8.63;;
71626;SDS011;59475;52.464;13.590;2023-03-01T05:42:51;14.77;;;8.77;;
71626;SDS011;59475;52.464;13.590;2023-03-01T05:45:19;17.85;;;8.48;;
71626;SDS011;59475;52.464;13.590;2023-03-01T05:47:46;15.80;;;8.73;;
71626;SDS011;59475;52.464;13.590;2023-03-01T05:50:15;13.03;;;8.70;;
71626;SDS011;59475;52.464;13.590;2023-03-01T05:52:45;13.93;;;8.02;;
71626;SDS011;59475;52.464;13.590;2023-03-01T05:55:13;16.98;;;9.98;;
71626;SDS011;59475;52.464;13.590;2023-03-01T05:57:39;18.00;;;9.20;;
71626;SDS011;59475;52.464;13.590;2023-03-01T06:00:04;15.03;;;8.50;;
71626;SDS011;59475;52.464;13.590;2023-03-01T06:02:31;18.65;;;9.07;;
71626;SDS011;59475;52.464;13.590;2023-03-01T06:04:56;13.33;;;8.40;;
71626;SDS011;59475;52.464;13.590;2023-03-01T06:07:22;18.60;;;9.60;;
71626;SDS011;59475;52.464;13.590;2023-03-01T06:09:47;16.13;;;8.50;;
71626;SDS011;59475;52.464;13.590;2023-03-01T06:12:14;16.02;;;8.13;;
71626;SDS011;59475;52.464;13.590;2023-03-01T06:14:39;16.73;;;8.37;;
71626;SDS011;59475;52.464;13.590;2023-03-01T06:17:04;13.90;;;8.60;;
71626;SDS011;59475;52.464;13.590;2023-03-01T06:19:30;15.40;;;8.90;;
71626;SDS011;59475;52.464;13.590;2023-03-01T06:21:55;17.63;;;8.97;;
71626;SDS011;59475;52.464;13.590;2023-03-01T06:24:20;16.70;;;8.43;;
71626;SDS011;59475;52.464;13.590;2023-03-01T06:26:46;19.90;;;9.47;;
71626;SDS011;59475;52.464;13.590;2023-03-01T06:29:11;16.00;;;8.83;;
71626;SDS011;59475;52.464;13.590;2023-03-01T06:31:37;15.50;;;9.47;;
71626;SDS011;59475;52.464;13.590;2023-03-01T06:34:02;14.73;;;10.13;;
71626;SDS011;59475;52.464;13.590;2023-03-01T06:36:28;17.08;;;9.70;;
71626;SDS011;59475;52.464;13.590;2023-03-01T06:38:53;15.40;;;9.47;;
71626;SDS011;59475;52.464;13.590;2023-03-01T06:41:18;17.53;;;9.87;;
71626;SDS011;59475;52.464;13.590;2023-03-01T06:43:44;20.73;;;11.30;;
71626;SDS011;59475;52.464;13.590;2023-03-01T06:46:09;20.60;;;9.77;;
71626;SDS011;59475;52.464;13.590;2023-03-01T06:48:34;17.80;;;10.07;;
71626;SDS011;59475;52.464;13.590;2023-03-01T06:51:00;18.52;;;9.85;;
71626;SDS011;59475;52.464;13.590;2023-03-01T06:53:28;17.77;;;10.53;;
71626;SDS011;59475;52.464;13.590;2023-03-01T06:55:57;28.30;;;12.45;;
71626;SDS011;59475;52.464;13.590;2023-03-01T06:58:24;23.05;;;12.55;;
71626;SDS011;59475;52.464;13.590;2023-03-01T07:00:50;21.23;;;12.67;;
71626;SDS011;59475;52.464;13.590;2023-03-01T07:03:16;17.60;;;11.02;;
71626;SDS011;59475;52.464;13.590;2023-03-01T07:05:41;19.60;;;12.07;;
71626;SDS011;59475;52.464;13.590;2023-03-01T07:08:07;21.07;;;11.63;;
71626;SDS011;59475;52.464;13.590;2023-03-01T07:10:32;17.53;;;10.90;;
71626;SDS011;59475;52.464;13.590;2023-03-01T07:12:58;19.98;;;10.48;;
71626;SDS011;59475;52.464;13.590;2023-03-01T07:15:24;19.20;;;9.13;;
71626;SDS011;59475;52.464;13.590;2023-03-01T07:17:50;19.45;;;10.65;;
71626;SDS011;59475;52.464;13.590;2023-03-01T07:20:16;16.73;;;10.17;;
71626;SDS011;59475;52.464;13.590;2023-03-01T07:22:44;16.95;;;10.02;;
71626;SDS011;59475;52.464;13.590;2023-03-01T07:25:10;19.35;;;12.07;;
71626;SDS011;59475;52.464;13.590;2023-03-01T07:27:35;21.50;;;11.88;;
71626;SDS011;59475;52.464;13.590;2023-03-01T07:30:01;21.37;;;11.47;;
71626;SDS011;59475;52.464;13.590;2023-03-01T07:32:26;19.83;;;11.67;;
71626;SDS011;59475;52.464;13.590;2023-03-01T07:34:51;17.07;;;11.50;;
71626;SDS011;59475;52.464;13.590;2023-03-01T07:37:17;19.63;;;11.13;;
71626;SDS011;59475;52.464;13.590;2023-03-01T07:39:42;21.48;;;12.57;;
71626;SDS011;59475;52.464;13.590;2023-03-01T07:42:08;21.27;;;11.63;;
71626;SDS011;59475;52.464;13.590;2023-03-01T07:44:33;20.57;;;12.10;;
71626;SDS011;59475;52.464;13.590;2023-03-01T07:47:02;18.90;;;10.63;;
71626;SDS011;59475;52.464;13.590;2023-03-01T07:49:28;17.48;;;11.65;;
71626;SDS011;59475;52.464;13.590;2023-03-01T07:51:53;18.03;;;11.37;;
71626;SDS011;59475;52.464;13.590;2023-03-01T07:54:19;20.30;;;11.70;;
71626;SDS011;59475;52.464;13.590;2023-03-01T07:56:44;18.93;;;10.27;;
71626;SDS011;59475;52.464;13.590;2023-03-01T07:59:10;22.23;;;11.10;;
71626;SDS011;59475;52.464;13.590;2023-03-01T08:01:43;18.75;;;10.93;;
71626;SDS011;59475;52.464;13.590;2023-03-01T08:04:09;15.47;;;10.43;;
71626;SDS011;59475;52.464;13.590;2023-03-01T08:06:35;18.07;;;9.67;;
71626;SDS011;59475;52.464;13.590;2023-03-01T08:09:00;17.30;;;10.77;;
71626;SDS011;59475;52.464;13.590;2023-03-01T08:11:26;16.93;;;9.33;;
71626;SDS011;59475;52.464;13.590;2023-03-01T08:13:53;18.42;;;9.85;;
71626;SDS011;59475;52.464;13.590;2023-03-01T08:16:18;18.27;;;10.45;;
71626;SDS011;59475;52.464;13.590;2023-03-01T08:18:44;19.37;;;11.97;;
71626;SDS011;59475;52.464;13.590;2023-03-01T08:21:14;18.93;;;10.70;;
71626;SDS011;59475;52.464;13.590;2023-03-01T08:23:41;17.17;;;11.65;;
71626;SDS011;59475;52.464;13.590;2023-03-01T08:26:09;21.63;;;13.30;;
71626;SDS011;59475;52.464;13.590;2023-03-01T08:28:35;21.10;;;13.77;;
71626;SDS011;59475;52.464;13.590;2023-03-01T08:31:01;18.63;;;11.40;;
71626;SDS011;59475;52.464;13.590;2023-03-01T08:33:27;17.90;;;10.73;;
71626;SDS011;59475;52.464;13.590;2023-03-01T08:35:53;18.53;;;11.23;;
71626;SDS011;59475;52.464;13.590;2023-03-01T08:38:27;18.45;;;11.00;;
71626;SDS011;59475;52.464;13.590;2023-03-01T08:40:52;17.90;;;10.40;;
71626;SDS011;59475;52.464;13.590;2023-03-01T08:43:18;16.60;;;10.57;;
71626;SDS011;59475;52.464;13.590;2023-03-01T08:45:44;14.33;;;10.00;;
71626;SDS011;59475;52.464;13.590;2023-03-01T08:48:09;16.17;;;9.53;;
71626;SDS011;59475;52.464;13.590;2023-03-01T08:50:35;18.67;;;9.47;;
71626;SDS011;59475;52.464;13.590;2023-03-01T08:53:00;14.43;;;9.13;;
71626;SDS011;59475;52.464;13.590;2023-03-01T08:55:26;15.60;;;8.77;;
71626;SDS011;59475;52.464;13.590;2023-03-01T08:57:51;13.53;;;8.00;;
71626;SDS011;59475;52.464;13.590;2023-03-01T09:00:16;12.83;;;7.70;;
71626;SDS011;59475;52.464;13.590;2023-03-01T09:02:42;12.45;;;7.80;;
71626;SDS011;59475;52.464;13.590;2023-03-01T09:05:08;12.17;;;7.20;;
71626;SDS011;59475;52.464;13.590;2023-03-01T09:07:33;10.63;;;7.72;;
71626;SDS011;59475;52.464;13.590;2023-03-01T09:09:59;14.60;;;8.43;;
71626;SDS011;59475;52.464;13.590;2023-03-01T09:12:24;9.47;;;6.53;;
71626;SDS011;59475;52.464;13.590;2023-03-01T09:14:50;9.50;;;6.20;;
71626;SDS011;59475;52.464;13.590;2023-03-01T09:17:15;11.27;;;7.15;;
71626;SDS011;59475;52.464;13.590;2023-03-01T09:19:40;11.23;;;6.87;;
71626;SDS011;59475;52.464;13.590;2023-03-01T09:22:06;10.70;;;6.83;;
71626;SDS011;59475;52.464;13.590;2023-03-01T09:24:31;11.13;;;7.03;;
71626;SDS011;59475;52.464;13.590;2023-03-01T09:26:57;8.80;;;6.20;;
71626;SDS011;59475;52.464;13.590;2023-03-01T09:29:22;11.00;;;6.80;;
71626;SDS011;59475;52.464;13.590;2023-03-01T09:31:48;15.90;;;6.68;;
71626;SDS011;59475;52.464;13.590;2023-03-01T09:34:14;10.27;;;4.90;;
71626;SDS011;59475;52.464;13.590;2023-03-01T09:36:41;8.23;;;5.47;;
71626;SDS011;59475;52.464;13.590;2023-03-01T09:39:06;9.10;;;5.47;;
71626;SDS011;59475;52.464;13.590;2023-03-01T09:46:45;9.00;;;5.68;;
71626;SDS011;59475;52.464;13.590;2023-03-01T09:49:13;9.40;;;5.68;;
71626;SDS011;59475;52.464;13.590;2023-03-01T09:51:48;11.67;;;5.97;;
71626;SDS011;59475;52.464;13.590;2023-03-01T09:54:20;6.68;;;4.43;;
71626;SDS011;59475;52.464;13.590;2023-03-01T09:56:49;6.77;;;4.00;;
71626;SDS011;59475;52.464;13.590;2023-03-01T09:59:33;7.65;;;4.57;;
71626;SDS011;59475;52.464;13.590;2023-03-01T10:05:12;10.38;;;4.30;;
71626;SDS011;59475;52.464;13.590;2023-03-01T10:10:21;6.17;;;4.60;;
71626;SDS011;59475;52.464;13.590;2023-03-01T10:12:52;7.40;;;4.55;;
71626;SDS011;59475;52.464;13.590;2023-03-01T10:15:19;7.60;;;4.53;;
71626;SDS011;59475;52.464;13.590;2023-03-01T10:17:58;9.10;;;5.15;;
71626;SDS011;59475;52.464;13.590;2023-03-01T10:20:30;7.18;;;4.50;;
71626;SDS011;59475;52.464;13.590;2023-03-01T10:23:07;7.03;;;3.97;;
71626;SDS011;59475;52.464;13.590;2023-03-01T10:30:47;11.05;;;4.57;;
71626;SDS011;59475;52.464;13.590;2023-03-01T10:33:35;9.30;;;5.10;;
71626;SDS011;59475;52.464;13.590;2023-03-01T10:36:02;9.95;;;4.95;;
71626;SDS011;59475;52.464;13.590;2023-03-01T10:38:27;6.00;;;4.10;;
71626;SDS011;59475;52.464;13.590;2023-03-01T10:41:11;5.65;;;3.83;;
71626;SDS011;59475;52.464;13.590;2023-03-01T10:49:18;6.75;;;3.25;;
71626;SDS011;59475;52.464;13.590;2023-03-01T10:51:46;5.38;;;3.33;;
71626;SDS011;59475;52.464;13.590;2023-03-01T10:54:29;8.57;;;4.88;;
71626;SDS011;59475;52.464;13.590;2023-03-01T10:56:57;7.50;;;4.30;;
71626;SDS011;59475;52.464;13.590;2023-03-01T10:59:29;5.83;;;3.57;;
71626;SDS011;59475;52.464;13.590;2023-03-01T11:04:58;5.18;;;3.72;;
71626;SDS011;59475;52.464;13.590;2023-03-01T11:07:27;4.35;;;3.00;;
71626;SDS011;59475;52.464;13.590;2023-03-01T11:09:52;4.65;;;3.40;;
71626;SDS011;59475;52.464;13.590;2023-03-01T11:12:18;6.13;;;3.30;;
71626;SDS011;59475;52.464;13.590;2023-03-01T11:14:46;8.18;;;3.20;;
71626;SDS011;59475;52.464;13.590;2023-03-01T11:17:15;3.75;;;3.15;;
71626;SDS011;59475;52.464;13.590;2023-03-01T11:20:23;5.90;;;3.13;;
71626;SDS011;59475;52.464;13.590;2023-03-01T11:22:55;4.60;;;3.00;;
71626;SDS011;59475;52.464;13.590;2023-03-01T11:25:29;5.32;;;3.00;;
71626;SDS011;59475;52.464;13.590;2023-03-01T11:27:59;6.40;;;3.50;;
71626;SDS011;59475;52.464;13.590;2023-03-01T11:30:36;4.43;;;3.15;;
71626;SDS011;59475;52.464;13.590;2023-03-01T11:42:19;5.17;;;3.10;;
71626;SDS011;59475;52.464;13.590;2023-03-01T11:44:54;6.40;;;3.30;;
71626;SDS011;59475;52.464;13.590;2023-03-01T11:50:45;6.65;;;3.80;;
71626;SDS011;59475;52.464;13.590;2023-03-01T12:07:19;6.00;;;2.40;;
71626;SDS011;59475;52.464;13.590;2023-03-01T12:18:17;5.75;;;2.70;;
71626;SDS011;59475;52.464;13.590;2023-03-01T12:20:53;3.00;;;2.38;;
71626;SDS011;59475;52.464;13.590;2023-03-01T12:31:57;5.20;;;2.67;;
71626;SDS011;59475;52.464;13.590;2023-03-01T12:40:09;4.25;;;2.50;;
71626;SDS011;59475;52.464;13.590;2023-03-01T12:48:44;3.92;;;2.40;;
71626;SDS011;59475;52.464;13.590;2023-03-01T12:51:14;3.67;;;2.37;;
71626;SDS011;59475;52.464;13.590;2023-03-01T12:53:43;5.78;;;2.30;;
71626;SDS011;59475;52.464;13.590;2023-03-01T12:56:12;5.65;;;3.38;;
71626;SDS011;59475;52.464;13.590;2023-03-01T12:58:46;3.78;;;2.67;;
71626;SDS011;59475;52.464;13.590;2023-03-01T13:11:46;5.13;;;2.30;;
71626;SDS011;59475;52.464;13.590;2023-03-01T13:16:47;3.22;;;2.30;;
71626;SDS011;59475;52.464;13.590;2023-03-01T13:19:26;2.78;;;2.00;;
71626;SDS011;59475;52.464;13.590;2023-03-01T13:21:54;2.85;;;2.00;;
71626;SDS011;59475;52.464;13.590;2023-03-01T13:24:33;6.10;;;2.10;;
71626;SDS011;59475;52.464;13.590;2023-03-01T13:29:45;4.88;;;2.75;;
71626;SDS011;59475;52.464;13.590;2023-03-01T13:34:45;5.80;;;3.13;;
71626;SDS011;59475;52.464;13.590;2023-03-01T13:37:34;5.33;;;2.60;;
71626;SDS011;59475;52.464;13.590;2023-03-01T13:40:56;3.45;;;2.60;;
71626;SDS011;59475;52.464;13.590;2023-03-01T13:42:49;3.40;;;2.20;;
71626;SDS011;59475;52.464;13.590;2023-03-01T13:47:53;4.53;;;2.58;;
71626;SDS011;59475;52.464;13.590;2023-03-01T13:50:24;4.10;;;2.70;;
71626;SDS011;59475;52.464;13.590;2023-03-01T13:52:53;3.97;;;2.65;;
71626;SDS011;59475;52.464;13.590;2023-03-01T13:55:46;4.88;;;3.10;;
71626;SDS011;59475;52.464;13.590;2023-03-01T13:58:27;4.35;;;2.55;;
71626;SDS011;59475;52.464;13.590;2023-03-01T14:01:01;5.57;;;2.90;;
71626;SDS011;59475;52.464;13.590;2023-03-01T14:03:29;5.17;;;2.40;;
71626;SDS011;59475;52.464;13.590;2023-03-01T14:08:34;3.05;;;2.20;;
71626;SDS011;59475;52.464;13.590;2023-03-01T14:16:52;3.37;;;2.10;;
71626;SDS011;59475;52.464;13.590;2023-03-01T14:19:39;3.63;;;1.73;;
71626;SDS011;59475;52.464;13.590;2023-03-01T14:24:52;3.15;;;2.42;;
71626;SDS011;59475;52.464;13.590;2023-03-01T14:27:20;2.65;;;2.22;;
71626;SDS011;59475;52.464;13.590;2023-03-01T14:29:56;2.70;;;2.20;;
71626;SDS011;59475;52.464;13.590;2023-03-01T14:32:25;3.13;;;2.00;;
71626;SDS011;59475;52.464;13.590;2023-03-01T14:34:51;3.85;;;2.50;;
71626;SDS011;59475;52.464;13.590;2023-03-01T14:39:47;3.63;;;2.17;;
71626;SDS011;59475;52.464;13.590;2023-03-01T14:42:13;2.65;;;1.83;;
71626;SDS011;59475;52.464;13.590;2023-03-01T14:44:41;3.00;;;2.13;;
71626;SDS011;59475;52.464;13.590;2023-03-01T14:49:54;2.92;;;2.00;;
71626;SDS011;59475;52.464;13.590;2023-03-01T14:52:25;4.03;;;2.20;;
71626;SDS011;59475;52.464;13.590;2023-03-01T14:55:02;5.85;;;2.40;;
71626;SDS011;59475;52.464;13.590;2023-03-01T14:57:30;4.40;;;2.53;;
71626;SDS011;59475;52.464;13.590;2023-03-01T14:59:59;3.58;;;2.13;;
71626;SDS011;59475;52.464;13.590;2023-03-01T15:02:30;5.05;;;2.03;;
71626;SDS011;59475;52.464;13.590;2023-03-01T15:04:57;5.80;;;2.42;;
71626;SDS011;59475;52.464;13.590;2023-03-01T15:07:26;3.53;;;2.30;;
71626;SDS011;59475;52.464;13.590;2023-03-01T15:09:55;3.37;;;2.00;;
71626;SDS011;59475;52.464;13.590;2023-03-01T15:14:52;6.80;;;2.17;;
71626;SDS011;59475;52.464;13.590;2023-03-01T15:19:58;3.67;;;1.87;;
71626;SDS011;59475;52.464;13.590;2023-03-01T15:22:24;2.33;;;1.55;;
71626;SDS011;59475;52.464;13.590;2023-03-01T15:24:51;3.05;;;1.60;;
71626;SDS011;59475;52.464;13.590;2023-03-01T15:27:18;4.18;;;1.95;;
71626;SDS011;59475;52.464;13.590;2023-03-01T15:29:50;2.90;;;1.92;;
71626;SDS011;59475;52.464;13.590;2023-03-01T15:32:29;2.63;;;1.73;;
71626;SDS011;59475;52.464;13.590;2023-03-01T15:34:59;3.03;;;1.85;;
71626;SDS011;59475;52.464;13.590;2023-03-01T15:37:39;4.35;;;1.60;;
71626;SDS011;59475;52.464;13.590;2023-03-01T15:42:56;2.90;;;1.75;;
71626;SDS011;59475;52.464;13.590;2023-03-01T15:45:24;2.77;;;2.00;;
71626;SDS011;59475;52.464;13.590;2023-03-01T15:47:56;2.80;;;1.90;;
71626;SDS011;59475;52.464;13.590;2023-03-01T15:52:56;3.17;;;1.70;;
71626;SDS011;59475;52.464;13.590;2023-03-01T15:55:27;4.40;;;2.00;;
71626;SDS011;59475;52.464;13.590;2023-03-01T15:57:58;4.97;;;1.80;;
71626;SDS011;59475;52.464;13.590;2023-03-01T16:00:25;2.65;;;1.70;;
71626;SDS011;59475;52.464;13.590;2023-03-01T16:02:51;3.40;;;2.57;;
71626;SDS011;59475;52.464;13.590;2023-03-01T16:07:45;2.37;;;1.70;;
71626;SDS011;59475;52.464;13.590;2023-03-01T16:10:10;3.28;;;1.80;;
71626;SDS011;59475;52.464;13.590;2023-03-01T16:12:35;4.10;;;2.50;;
71626;SDS011;59475;52.464;13.590;2023-03-01T16:15:01;3.40;;;1.80;;
71626;SDS011;59475;52.464;13.590;2023-03-01T16:17:27;3.13;;;2.00;;
71626;SDS011;59475;52.464;13.590;2023-03-01T16:19:53;4.47;;;2.30;;
71626;SDS011;59475;52.464;13.590;2023-03-01T16:22:18;2.88;;;2.30;;
71626;SDS011;59475;52.464;13.590;2023-03-01T16:24:49;3.67;;;2.27;;
71626;SDS011;59475;52.464;13.590;2023-03-01T16:27:15;4.15;;;2.38;;
71626;SDS011;59475;52.464;13.590;2023-03-01T16:29:41;4.90;;;2.10;;
71626;SDS011;59475;52.464;13.590;2023-03-01T16:32:06;2.97;;;2.00;;
71626;SDS011;59475;52.464;13.590;2023-03-01T16:34:32;4.13;;;2.03;;
71626;SDS011;59475;52.464;13.590;2023-03-01T16:36:57;4.13;;;2.67;;
71626;SDS011;59475;52.464;13.590;2023-03-01T16:39:23;5.30;;;3.07;;
71626;SDS011;59475;52.464;13.590;2023-03-01T16:41:49;4.78;;;2.95;;
71626;SDS011;59475;52.464;13.590;2023-03-01T16:44:14;10.23;;;5.20;;